Anza Borrego Desert State Park, California Weather observations

Data are for 10 minute period ending at time listed.
 Day   Time   Solar   Ave.   Ave.  Ave.  Vector  Max.   Baro.   Total    
  of    of     Rad.   Air    Rel.  Wind   Wind   Wind  Press.  Precip.   
Year   Day            Temp.  Hum.  Speed  Dir.   Gust                    
2017   (PST)  Kw/m2    F      %     mph   deg.    mph    mb.     in.     
-------------------------------------------------------------------------
  84    0:00   0.00   62.7    48    3.1   232     4.6   986.8    0.00 
  84    0:10   0.00   62.7    48    2.8   200     4.1   986.8    0.00 
  84    0:20   0.00   60.9    52    3.8   208     5.5   986.8    0.00 
  84    0:30   0.00   60.7    52    4.9   216     6.4   986.8    0.00 
  84    0:40   0.00   62.1    48    6.7   222     8.8   986.8    0.00 
  84    0:50   0.00   62.5    47    7.5   193     9.8   986.6    0.00 
  84    1:00   0.00   62.5    47    6.3   198     8.6   986.5    0.00 
  84    1:10   0.00   62.2    47    3.3   207     5.4   986.5    0.00 
  84    1:20   0.00   62.5    46    3.7   250     6.9   986.4    0.00 
  84    1:30   0.00   63.1    45    3.2   255     6.2   986.4    0.00 
  84    1:40   0.00   61.7    48    3.0   239     5.9   986.4    0.00 
  84    1:50   0.00   61.1    49    3.5   234     5.2   986.3    0.00 
  84    2:00   0.00   60.0    52    2.1   241     3.9   986.1    0.00 
  84    2:10   0.00   58.7    55    1.7   227     3.7   985.9    0.00 
  84    2:20   0.00   58.2    56    1.8   236     4.5   985.7    0.00 
  84    2:30   0.00   58.6    54    3.4   227     4.5   985.7    0.00 
  84    2:40   0.00   58.4    54    2.4   207     3.6   985.5    0.00 
  84    2:50   0.00   57.7    56    2.7   283     4.8   985.4    0.00 
  84    3:00   0.00   58.3    55    2.3   174     4.8   985.3    0.00 
  84    3:10   0.00   57.7    56    2.6   232     5.0   985.2    0.00 
  84    3:20   0.00   57.5    54    6.5   200     8.0   984.9    0.00 
  84    3:30   0.00   59.1    47    6.0   209     7.8   984.8    0.00 
  84    3:40   0.00   58.3    49    6.0   222     8.6   984.7    0.00 
  84    3:50   0.00   57.9    50    4.1   256     5.9   984.7    0.00 
  84    4:00   0.00   59.3    45    3.0   357     4.6   984.7    0.00 
  84    4:10   0.00   59.0    45    3.9   357     6.4   984.7    0.00 
  84    4:20   0.00   55.0    52    2.7   210     5.8   984.7    0.00 
  84    4:30   0.00   53.5    54    4.0   245     5.7   984.6    0.00 
  84    4:40   0.00   52.3    57    4.6   229     7.2   984.5    0.00 
  84    4:50   0.00   52.4    55    4.0   227     6.0   984.4    0.00 
  84    5:00   0.00   51.9    54    4.3   211     5.5   984.4    0.00 
  84    5:10   0.00   52.6    52    3.9   254     6.5   984.4    0.00 
  84    5:20   0.00   52.8    50    3.5   241     7.5   984.4    0.00 
  84    5:30   0.00   51.8    50    3.3   222     6.1   984.5    0.00 
  84    5:40   0.00   51.8    48    4.5   206     6.4   984.6    0.00 
  84    5:50   0.00   52.1    47    4.5   199     7.9   984.6    0.00 
  84    6:00   0.01   54.2    40    3.8   160     6.0   984.6    0.00 
  84    6:10   0.03   55.4    39    2.5   240     6.3   984.8    0.00 
  84    6:20   0.07   58.8    33    2.7   197     4.5   984.9    0.00 
  84    6:30   0.09   61.2    32    1.9   215     5.1   985.1    0.00 
  84    6:40   0.12   62.9    30    3.1   174     6.1   985.2    0.00 
  84    6:50   0.16   65.8    26    1.9   196     4.5   985.3    0.00 
  84    7:00   0.20   68.3    22    2.4   179     4.0   985.4    0.00 
  84    7:10   0.23   68.9    21    3.3   147     5.3   985.5    0.00 
  84    7:20   0.27   69.9    21    2.7   136     4.8   985.6    0.00 
  84    7:30   0.31   69.9    21    3.7   126     5.6   985.6    0.00 
  84    7:40   0.34   70.0    22    3.4    65     5.7   985.8    0.00 
  84    7:50   0.38   71.3    22    2.1   103     4.5   985.8    0.00 
  84    8:00   0.41   70.9    22    5.1   113    10.6   985.8    0.00 
  84    8:10   0.45   70.8    24    8.7   134    12.5   985.6    0.00 
  84    8:20   0.48   71.0    24    7.9    66    12.3   985.3    0.00 
  84    8:30   0.51   71.8    24    7.3    54    14.0   985.3    0.00 
  84    8:40   0.54   71.7    24    6.6    93    12.0   985.3    0.00 
  84    8:50   0.57   73.6    24    3.3   177     9.9   985.2    0.00 
  84    9:00   0.60   73.5    26    7.1   332    22.5   985.2    0.00 
  84    9:10   0.63   73.1    27    7.0   301    21.8   985.1    0.00 
  84    9:20   0.66   72.3    28   16.1   318    28.9   984.9    0.00 
  84    9:30   0.69   72.3    28   15.9   312    37.9   984.7    0.00 
  84    9:40   0.72   72.2    28   20.5   312    30.1   984.7    0.00 
  84    9:50   0.74   72.3    29   17.1   310    31.8   984.7    0.00 
  84   10:00   0.77   73.0    28   19.1   303    38.0   984.6    0.00 
  84   10:10   0.79   73.2    28   19.1   283    29.7   984.5    0.00 
  84   10:20   0.81   73.7    28   20.7   277    33.6   984.4    0.00 
  84   10:30   0.83   73.3    28   18.8   291    32.7   984.4    0.00 
  84   10:40   0.85   74.1    27   16.7   289    29.3   984.4    0.00 
  84   10:50   0.86   73.8    27   16.6   293    29.5   984.4    0.00 
  84   11:00   0.88   74.5    27   12.8   294    20.5   984.3    0.00 
  84   11:10   0.89   74.7    27   12.0   296    21.2   984.4    0.00 
  84   11:20   0.90   75.1    27   14.8   282    24.4   984.2    0.00 
  84   11:30   0.91   75.5    28   14.7   263    26.7   984.3    0.00 
  84   11:40   0.91   74.5    28   19.0   248    29.7   984.2    0.00 
  84   11:50   0.91   74.7    29   16.0   256    27.5   984.1    0.00 
  84   12:00   0.91   75.1    28   11.5   268    22.6   984.0    0.00 
  84   12:10   0.90   75.6    28   12.5   259    24.6   983.8    0.00 
  84   12:20   0.89   75.6    27   11.8   284    24.0   983.6    0.00 
  84   12:30   0.91   75.8    26   15.2   267    25.3   983.2    0.00 
  84   12:40   0.90   75.4    26   20.7   274    34.3   982.9    0.00 
  84   12:50   0.88   75.9    28    9.4   275    20.8   983.1    0.00 
  84   13:00   0.88   75.9    28   10.9   278    23.8   983.1    0.00 
  84   13:10   0.87   76.1    26    6.3   354    17.5   983.0    0.00 
  84   13:20   0.84   75.5    28    8.2   266    20.4   983.0    0.00 
  84   13:30   0.82   74.8    28   12.5   346    23.4   982.6    0.00 
  84   13:40   0.81   74.5    30   12.6   316    22.0   982.6    0.00 
  84   13:50   0.79   73.6    31   17.5   323    35.7   982.5    0.00 
  84   14:00   0.63   72.8    32   11.6   338    30.4   982.5    0.00 
  84   14:10   0.62   74.1    31    6.8   313    28.4   982.6    0.00 
  84   14:20   0.44   72.6    32    7.8   345    19.6   982.5    0.00 
  84   14:30   0.73   74.3    30    4.9    10    13.9   982.6    0.00 
  84   14:40   0.75   75.8    29    8.1   286    32.2   982.6    0.00 
  84   14:50   0.69   73.7    28    7.9     8    22.9   982.5    0.00 
  84   15:00   0.64   75.9    28    4.8   239    11.7   982.3    0.00 
  84   15:10   0.59   74.6    29    7.0   305    18.3   982.2    0.00 
  84   15:20   0.51   74.3    29    9.3   255    18.9   982.1    0.00 
  84   15:30   0.51   74.3    30    5.9   328    13.7   981.8    0.00 
  84   15:40   0.48   74.6    30    5.7   244    12.9   981.8    0.00 
  84   15:50   0.45   73.7    30    9.7   266    23.7   981.6    0.00 
  84   16:00   0.42   73.7    31    4.9   217    11.8   981.7    0.00 
  84   16:10   0.38   74.0    32    4.4   212    10.7   981.8    0.00 
  84   16:20   0.34   73.3    35    8.7    79    14.4   981.8    0.00 
  84   16:30   0.30   72.1    34    8.2   350    17.3   981.8    0.00 
  84   16:40   0.27   72.8    34    6.7   166    18.6   981.8    0.00 
  84   16:50   0.22   71.8    36    8.8   116    14.0   981.7    0.00 
  84   17:00   0.15   71.3    35    8.3   194    21.2   981.8    0.00 
  84   17:10   0.02   69.7    37   11.4   239    29.6   981.9    0.00 
  84   17:20   0.01   67.5    42   21.7   225    33.3   981.7    0.00 
  84   17:30   0.01   67.5    39   13.9   232    27.0   981.6    0.00 
  84   17:40   0.01   69.1    30    3.9   273    11.0   981.6    0.00 
  84   17:50   0.01   69.8    26    5.0   312    14.0   981.6    0.00 
  84   18:00   0.00   69.6    28    4.9   227    14.2   981.7    0.00 
  84   18:10   0.00   68.8    30    6.3   104    11.0   981.8    0.00 
  84   18:20   0.00   68.5    32    5.4    37    13.1   981.9    0.00 
  84   18:30   0.00   67.8    34    6.7   151    13.0   982.0    0.00 
  84   18:40   0.00   67.6    34    5.0    92    10.4   982.0    0.00 
  84   18:50   0.00   68.1    33    5.4   286    12.5   982.1    0.00 
  84   19:00   0.00   68.0    34    4.9   310    12.3   982.2    0.00 
  84   19:10   0.00   67.5    35    4.3   335    11.6   982.2    0.00 
  84   19:20   0.00   66.5    37    4.2   207     7.8   982.3    0.00 
  84   19:30   0.00   64.5    40    4.8   181     8.7   982.4    0.00 
  84   19:40   0.00   63.7    41    2.6   264     5.3   982.6    0.00 
  84   19:50   0.00   63.8    41    2.6   146     6.6   982.6    0.00 
  84   20:00   0.00   63.7    42    2.6   230     9.3   982.8    0.00 
  84   20:10   0.00   64.8    40    1.8   252     6.0   982.9    0.00 
  84   20:20   0.00   60.9    46    5.0   251     6.8   982.9    0.00 
  84   20:30   0.00   59.4    48    5.8   265     7.7   983.1    0.00 
  84   20:40   0.00   59.2    48    4.6   266     7.2   983.0    0.00 
  84   20:50   0.00   59.1    49    4.1   260     7.2   983.0    0.00 
  84   21:00   0.00   61.1    47    5.8   293    11.5   983.0    0.00 
  84   21:10   0.00   62.2    46    2.7   257    10.4   983.0    0.00 
  84   21:20   0.00   60.9    48    4.4   302    10.1   983.0    0.00 
  84   21:30   0.00   62.4    46    5.4   340     8.2   983.1    0.00 
  84   21:40   0.00   63.1    45    5.1   344     8.4   983.1    0.00 
  84   21:50   0.00   61.9    46    2.7   276     6.4   983.1    0.00 
  84   22:00   0.00   58.6    51    5.7   254     7.7   983.0    0.00 
  84   22:10   0.00   60.0    49    5.4   283    10.2   983.0    0.00 
  84   22:20   0.00   60.8    49    4.0   334     9.7   983.0    0.00 
  84   22:30   0.00   60.2    51    2.7   352     5.3   983.0    0.00 
  84   22:40   0.00   58.2    53    2.5   136     3.9   983.0    0.00 
  84   22:50   0.00   56.5    55    2.6   184     5.3   983.0    0.00 
  84   23:00   0.00   55.8    57    3.3   274     5.8   982.8    0.00 
  84   23:10   0.00   55.3    58    2.5   300     3.8   982.7    0.00 

Return to Anza Borrego Desert State Park graphs page.


Western Regional Climate Center,wrcc@dri.edu